sensor_id;sensor_type;location;lat;lon;timestamp;P1;durP1;ratioP1;P2;durP2;ratioP2
51602;SDS011;37954;51.980;5.850;2023-11-22T00:03:00;10.87;;;8.33;;
51602;SDS011;37954;51.980;5.850;2023-11-22T00:07:12;13.17;;;8.87;;
51602;SDS011;37954;51.980;5.850;2023-11-22T00:11:23;13.53;;;8.93;;
51602;SDS011;37954;51.980;5.850;2023-11-22T00:15:35;11.37;;;8.70;;
51602;SDS011;37954;51.980;5.850;2023-11-22T00:19:47;12.37;;;8.60;;
51602;SDS011;37954;51.980;5.850;2023-11-22T00:23:59;12.17;;;8.43;;
51602;SDS011;37954;51.980;5.850;2023-11-22T00:28:10;11.97;;;9.17;;
51602;SDS011;37954;51.980;5.850;2023-11-22T00:32:23;11.33;;;8.07;;
51602;SDS011;37954;51.980;5.850;2023-11-22T00:36:35;12.83;;;9.50;;
51602;SDS011;37954;51.980;5.850;2023-11-22T00:40:48;11.40;;;8.83;;
51602;SDS011;37954;51.980;5.850;2023-11-22T00:44:59;11.70;;;9.30;;
51602;SDS011;37954;51.980;5.850;2023-11-22T00:49:11;13.20;;;9.40;;
51602;SDS011;37954;51.980;5.850;2023-11-22T00:53:23;11.27;;;8.37;;
51602;SDS011;37954;51.980;5.850;2023-11-22T00:57:34;12.53;;;8.90;;
51602;SDS011;37954;51.980;5.850;2023-11-22T01:01:46;13.17;;;9.47;;
51602;SDS011;37954;51.980;5.850;2023-11-22T01:05:58;12.33;;;8.70;;
51602;SDS011;37954;51.980;5.850;2023-11-22T01:10:09;10.00;;;8.23;;
51602;SDS011;37954;51.980;5.850;2023-11-22T01:14:21;12.97;;;8.50;;
51602;SDS011;37954;51.980;5.850;2023-11-22T01:18:33;13.23;;;8.87;;
51602;SDS011;37954;51.980;5.850;2023-11-22T01:22:47;11.70;;;9.00;;
51602;SDS011;37954;51.980;5.850;2023-11-22T01:26:59;12.13;;;8.73;;
51602;SDS011;37954;51.980;5.850;2023-11-22T01:31:12;11.83;;;8.70;;
51602;SDS011;37954;51.980;5.850;2023-11-22T01:35:24;12.40;;;8.50;;
51602;SDS011;37954;51.980;5.850;2023-11-22T01:39:38;10.17;;;8.00;;
51602;SDS011;37954;51.980;5.850;2023-11-22T01:43:52;9.87;;;7.70;;
51602;SDS011;37954;51.980;5.850;2023-11-22T01:48:03;12.03;;;8.40;;
51602;SDS011;37954;51.980;5.850;2023-11-22T01:52:15;13.33;;;8.67;;
51602;SDS011;37954;51.980;5.850;2023-11-22T01:56:27;10.83;;;8.17;;
51602;SDS011;37954;51.980;5.850;2023-11-22T02:00:42;12.57;;;8.33;;
51602;SDS011;37954;51.980;5.850;2023-11-22T02:05:01;9.10;;;7.63;;
51602;SDS011;37954;51.980;5.850;2023-11-22T02:09:13;9.37;;;7.90;;
51602;SDS011;37954;51.980;5.850;2023-11-22T02:13:28;10.03;;;7.73;;
51602;SDS011;37954;51.980;5.850;2023-11-22T02:17:40;16.97;;;8.43;;
51602;SDS011;37954;51.980;5.850;2023-11-22T02:21:51;10.10;;;8.50;;
51602;SDS011;37954;51.980;5.850;2023-11-22T02:26:03;10.37;;;8.80;;
51602;SDS011;37954;51.980;5.850;2023-11-22T02:30:15;12.13;;;8.00;;
51602;SDS011;37954;51.980;5.850;2023-11-22T02:34:27;11.67;;;8.47;;
51602;SDS011;37954;51.980;5.850;2023-11-22T02:38:39;12.60;;;8.80;;
51602;SDS011;37954;51.980;5.850;2023-11-22T02:42:52;15.57;;;9.30;;
51602;SDS011;37954;51.980;5.850;2023-11-22T02:47:05;10.47;;;8.00;;
51602;SDS011;37954;51.980;5.850;2023-11-22T02:51:16;11.40;;;8.67;;
51602;SDS011;37954;51.980;5.850;2023-11-22T02:55:29;14.13;;;8.53;;
51602;SDS011;37954;51.980;5.850;2023-11-22T02:59:42;10.97;;;7.73;;
51602;SDS011;37954;51.980;5.850;2023-11-22T03:03:54;13.33;;;8.60;;
51602;SDS011;37954;51.980;5.850;2023-11-22T03:08:06;15.70;;;8.90;;
51602;SDS011;37954;51.980;5.850;2023-11-22T03:12:19;13.10;;;7.70;;
51602;SDS011;37954;51.980;5.850;2023-11-22T03:16:34;9.80;;;7.73;;
51602;SDS011;37954;51.980;5.850;2023-11-22T03:20:46;10.80;;;8.03;;
51602;SDS011;37954;51.980;5.850;2023-11-22T03:24:58;12.37;;;8.50;;
51602;SDS011;37954;51.980;5.850;2023-11-22T03:29:10;10.67;;;8.33;;
51602;SDS011;37954;51.980;5.850;2023-11-22T03:33:21;12.47;;;8.40;;
51602;SDS011;37954;51.980;5.850;2023-11-22T03:37:34;10.83;;;8.20;;
51602;SDS011;37954;51.980;5.850;2023-11-22T03:41:45;11.83;;;8.33;;
51602;SDS011;37954;51.980;5.850;2023-11-22T03:45:57;10.60;;;8.07;;
51602;SDS011;37954;51.980;5.850;2023-11-22T03:50:09;10.13;;;7.87;;
51602;SDS011;37954;51.980;5.850;2023-11-22T03:54:21;11.33;;;8.53;;
51602;SDS011;37954;51.980;5.850;2023-11-22T03:58:33;13.33;;;8.97;;
51602;SDS011;37954;51.980;5.850;2023-11-22T04:02:45;10.60;;;7.80;;
51602;SDS011;37954;51.980;5.850;2023-11-22T04:06:57;12.93;;;8.43;;
51602;SDS011;37954;51.980;5.850;2023-11-22T04:11:09;10.87;;;8.13;;
51602;SDS011;37954;51.980;5.850;2023-11-22T04:15:21;14.57;;;8.77;;
51602;SDS011;37954;51.980;5.850;2023-11-22T04:19:33;11.00;;;8.47;;
51602;SDS011;37954;51.980;5.850;2023-11-22T04:23:45;11.37;;;7.67;;
51602;SDS011;37954;51.980;5.850;2023-11-22T04:27:57;12.17;;;8.27;;
51602;SDS011;37954;51.980;5.850;2023-11-22T04:32:10;11.10;;;8.07;;
51602;SDS011;37954;51.980;5.850;2023-11-22T04:36:22;11.43;;;7.80;;
51602;SDS011;37954;51.980;5.850;2023-11-22T04:40:36;12.40;;;8.57;;
51602;SDS011;37954;51.980;5.850;2023-11-22T04:44:48;11.30;;;8.10;;
51602;SDS011;37954;51.980;5.850;2023-11-22T04:49:00;9.90;;;7.53;;
51602;SDS011;37954;51.980;5.850;2023-11-22T04:53:12;14.53;;;8.43;;
51602;SDS011;37954;51.980;5.850;2023-11-22T04:57:23;12.57;;;8.60;;
51602;SDS011;37954;51.980;5.850;2023-11-22T05:01:35;11.03;;;8.50;;
51602;SDS011;37954;51.980;5.850;2023-11-22T05:05:47;10.80;;;8.47;;
51602;SDS011;37954;51.980;5.850;2023-11-22T05:09:59;13.03;;;8.87;;
51602;SDS011;37954;51.980;5.850;2023-11-22T05:14:11;12.00;;;8.93;;
51602;SDS011;37954;51.980;5.850;2023-11-22T05:18:23;13.33;;;8.73;;
51602;SDS011;37954;51.980;5.850;2023-11-22T05:22:36;15.60;;;8.90;;
51602;SDS011;37954;51.980;5.850;2023-11-22T05:26:48;14.47;;;8.97;;
51602;SDS011;37954;51.980;5.850;2023-11-22T05:31:00;12.43;;;9.10;;
51602;SDS011;37954;51.980;5.850;2023-11-22T05:35:11;13.00;;;8.40;;
51602;SDS011;37954;51.980;5.850;2023-11-22T05:39:24;13.23;;;9.43;;
51602;SDS011;37954;51.980;5.850;2023-11-22T05:43:35;10.33;;;8.03;;
51602;SDS011;37954;51.980;5.850;2023-11-22T05:47:48;11.90;;;8.43;;
51602;SDS011;37954;51.980;5.850;2023-11-22T05:51:59;13.13;;;9.43;;
51602;SDS011;37954;51.980;5.850;2023-11-22T05:56:11;15.87;;;10.30;;
51602;SDS011;37954;51.980;5.850;2023-11-22T06:00:23;12.60;;;9.13;;
51602;SDS011;37954;51.980;5.850;2023-11-22T06:04:34;12.40;;;9.77;;
51602;SDS011;37954;51.980;5.850;2023-11-22T06:08:49;13.03;;;9.93;;
51602;SDS011;37954;51.980;5.850;2023-11-22T06:13:01;13.70;;;9.57;;
51602;SDS011;37954;51.980;5.850;2023-11-22T06:17:12;13.87;;;10.33;;
51602;SDS011;37954;51.980;5.850;2023-11-22T06:21:25;12.80;;;9.13;;
51602;SDS011;37954;51.980;5.850;2023-11-22T06:25:38;12.50;;;9.17;;
51602;SDS011;37954;51.980;5.850;2023-11-22T06:29:53;15.10;;;10.73;;
51602;SDS011;37954;51.980;5.850;2023-11-22T06:34:05;13.87;;;9.53;;
51602;SDS011;37954;51.980;5.850;2023-11-22T06:38:17;15.87;;;10.00;;
51602;SDS011;37954;51.980;5.850;2023-11-22T06:42:29;15.20;;;10.90;;
51602;SDS011;37954;51.980;5.850;2023-11-22T06:46:40;15.50;;;9.47;;
51602;SDS011;37954;51.980;5.850;2023-11-22T06:50:52;14.90;;;10.87;;
51602;SDS011;37954;51.980;5.850;2023-11-22T06:55:04;12.67;;;9.70;;
51602;SDS011;37954;51.980;5.850;2023-11-22T06:59:19;15.53;;;10.97;;
51602;SDS011;37954;51.980;5.850;2023-11-22T07:03:30;16.10;;;10.70;;
51602;SDS011;37954;51.980;5.850;2023-11-22T07:07:43;12.87;;;9.63;;
51602;SDS011;37954;51.980;5.850;2023-11-22T07:11:54;12.33;;;8.97;;
51602;SDS011;37954;51.980;5.850;2023-11-22T07:16:08;10.57;;;8.53;;
51602;SDS011;37954;51.980;5.850;2023-11-22T07:20:20;12.43;;;9.30;;
51602;SDS011;37954;51.980;5.850;2023-11-22T07:24:32;14.17;;;9.77;;
51602;SDS011;37954;51.980;5.850;2023-11-22T07:28:45;13.00;;;9.77;;
51602;SDS011;37954;51.980;5.850;2023-11-22T07:32:57;13.70;;;9.50;;
51602;SDS011;37954;51.980;5.850;2023-11-22T07:37:11;15.27;;;10.17;;
51602;SDS011;37954;51.980;5.850;2023-11-22T07:41:24;14.53;;;9.27;;
51602;SDS011;37954;51.980;5.850;2023-11-22T07:45:36;13.63;;;9.73;;
51602;SDS011;37954;51.980;5.850;2023-11-22T07:49:48;13.17;;;9.77;;
51602;SDS011;37954;51.980;5.850;2023-11-22T07:54:00;15.43;;;8.97;;
51602;SDS011;37954;51.980;5.850;2023-11-22T07:58:11;22.60;;;13.70;;
51602;SDS011;37954;51.980;5.850;2023-11-22T08:02:23;16.47;;;12.20;;
51602;SDS011;37954;51.980;5.850;2023-11-22T08:06:36;17.10;;;11.67;;
51602;SDS011;37954;51.980;5.850;2023-11-22T08:10:49;16.57;;;10.90;;
51602;SDS011;37954;51.980;5.850;2023-11-22T08:15:04;16.40;;;11.70;;
51602;SDS011;37954;51.980;5.850;2023-11-22T08:19:16;13.83;;;10.43;;
51602;SDS011;37954;51.980;5.850;2023-11-22T08:28:24;14.20;;;11.43;;
51602;SDS011;37954;51.980;5.850;2023-11-22T08:32:37;16.60;;;11.30;;
51602;SDS011;37954;51.980;5.850;2023-11-22T08:36:49;13.90;;;10.57;;
51602;SDS011;37954;51.980;5.850;2023-11-22T08:41:01;14.67;;;11.20;;
51602;SDS011;37954;51.980;5.850;2023-11-22T08:45:14;18.87;;;11.50;;
51602;SDS011;37954;51.980;5.850;2023-11-22T08:49:26;19.40;;;12.60;;
51602;SDS011;37954;51.980;5.850;2023-11-22T08:53:37;20.70;;;13.03;;
51602;SDS011;37954;51.980;5.850;2023-11-22T08:57:49;19.93;;;13.90;;
51602;SDS011;37954;51.980;5.850;2023-11-22T09:02:04;19.80;;;13.83;;
51602;SDS011;37954;51.980;5.850;2023-11-22T09:06:19;18.70;;;13.20;;
51602;SDS011;37954;51.980;5.850;2023-11-22T09:10:30;16.33;;;12.60;;
51602;SDS011;37954;51.980;5.850;2023-11-22T09:14:42;16.03;;;11.77;;
51602;SDS011;37954;51.980;5.850;2023-11-22T09:18:54;20.40;;;12.37;;
51602;SDS011;37954;51.980;5.850;2023-11-22T09:23:07;16.83;;;11.73;;
51602;SDS011;37954;51.980;5.850;2023-11-22T09:27:20;17.23;;;12.17;;
51602;SDS011;37954;51.980;5.850;2023-11-22T09:31:32;16.53;;;10.97;;
51602;SDS011;37954;51.980;5.850;2023-11-22T09:40:22;15.87;;;10.53;;
51602;SDS011;37954;51.980;5.850;2023-11-22T09:44:34;17.43;;;11.67;;
51602;SDS011;37954;51.980;5.850;2023-11-22T09:48:47;15.90;;;10.57;;
51602;SDS011;37954;51.980;5.850;2023-11-22T09:53:02;16.77;;;10.87;;
51602;SDS011;37954;51.980;5.850;2023-11-22T09:57:20;13.47;;;10.73;;
51602;SDS011;37954;51.980;5.850;2023-11-22T10:01:37;14.53;;;10.30;;
51602;SDS011;37954;51.980;5.850;2023-11-22T10:05:50;14.70;;;10.60;;
51602;SDS011;37954;51.980;5.850;2023-11-22T10:10:04;13.53;;;10.20;;
51602;SDS011;37954;51.980;5.850;2023-11-22T10:14:22;13.13;;;10.87;;
51602;SDS011;37954;51.980;5.850;2023-11-22T10:18:39;13.40;;;10.70;;
51602;SDS011;37954;51.980;5.850;2023-11-22T10:22:51;13.83;;;10.50;;
51602;SDS011;37954;51.980;5.850;2023-11-22T10:27:03;14.33;;;10.47;;
51602;SDS011;37954;51.980;5.850;2023-11-22T10:31:15;11.53;;;9.43;;
51602;SDS011;37954;51.980;5.850;2023-11-22T10:35:28;18.00;;;10.97;;
51602;SDS011;37954;51.980;5.850;2023-11-22T10:39:40;14.33;;;10.43;;
51602;SDS011;37954;51.980;5.850;2023-11-22T10:43:52;15.03;;;10.50;;
51602;SDS011;37954;51.980;5.850;2023-11-22T10:48:08;11.60;;;9.07;;
51602;SDS011;37954;51.980;5.850;2023-11-22T10:52:20;12.77;;;9.37;;
51602;SDS011;37954;51.980;5.850;2023-11-22T10:56:41;13.13;;;8.97;;
51602;SDS011;37954;51.980;5.850;2023-11-22T11:00:57;11.57;;;9.10;;
51602;SDS011;37954;51.980;5.850;2023-11-22T11:05:16;11.23;;;8.67;;
51602;SDS011;37954;51.980;5.850;2023-11-22T11:09:32;13.20;;;8.20;;
51602;SDS011;37954;51.980;5.850;2023-11-22T11:13:45;11.30;;;8.03;;
51602;SDS011;37954;51.980;5.850;2023-11-22T11:17:58;9.40;;;7.80;;
51602;SDS011;37954;51.980;5.850;2023-11-22T11:22:11;10.20;;;8.27;;
51602;SDS011;37954;51.980;5.850;2023-11-22T11:26:23;10.97;;;8.17;;
51602;SDS011;37954;51.980;5.850;2023-11-22T11:34:54;9.03;;;7.30;;
51602;SDS011;37954;51.980;5.850;2023-11-22T11:39:07;11.20;;;8.43;;
51602;SDS011;37954;51.980;5.850;2023-11-22T11:43:39;10.53;;;7.20;;
51602;SDS011;37954;51.980;5.850;2023-11-22T11:47:51;10.80;;;7.60;;
51602;SDS011;37954;51.980;5.850;2023-11-22T11:52:03;11.80;;;9.00;;
51602;SDS011;37954;51.980;5.850;2023-11-22T11:56:15;15.30;;;10.60;;
51602;SDS011;37954;51.980;5.850;2023-11-22T12:00:27;14.13;;;9.82;;
51602;SDS011;37954;51.980;5.850;2023-11-22T12:04:39;15.63;;;9.60;;
51602;SDS011;37954;51.980;5.850;2023-11-22T12:08:51;13.73;;;10.03;;
51602;SDS011;37954;51.980;5.850;2023-11-22T12:13:04;13.20;;;10.50;;
51602;SDS011;37954;51.980;5.850;2023-11-22T12:17:16;17.87;;;11.70;;
51602;SDS011;37954;51.980;5.850;2023-11-22T12:21:29;17.47;;;12.50;;
51602;SDS011;37954;51.980;5.850;2023-11-22T12:25:42;14.97;;;11.63;;
51602;SDS011;37954;51.980;5.850;2023-11-22T12:29:55;18.93;;;13.20;;
51602;SDS011;37954;51.980;5.850;2023-11-22T12:34:07;18.50;;;12.37;;
51602;SDS011;37954;51.980;5.850;2023-11-22T12:38:19;17.37;;;11.80;;
51602;SDS011;37954;51.980;5.850;2023-11-22T12:42:31;19.20;;;11.63;;
51602;SDS011;37954;51.980;5.850;2023-11-22T12:46:49;16.73;;;11.20;;
51602;SDS011;37954;51.980;5.850;2023-11-22T12:51:15;15.83;;;10.57;;
51602;SDS011;37954;51.980;5.850;2023-11-22T12:55:41;15.00;;;10.63;;
51602;SDS011;37954;51.980;5.850;2023-11-22T12:59:54;16.27;;;10.80;;
51602;SDS011;37954;51.980;5.850;2023-11-22T13:04:06;18.30;;;11.70;;
51602;SDS011;37954;51.980;5.850;2023-11-22T13:08:17;15.03;;;10.93;;
51602;SDS011;37954;51.980;5.850;2023-11-22T13:12:29;18.03;;;10.97;;
51602;SDS011;37954;51.980;5.850;2023-11-22T13:16:42;17.00;;;11.23;;
51602;SDS011;37954;51.980;5.850;2023-11-22T13:20:54;17.77;;;11.20;;
51602;SDS011;37954;51.980;5.850;2023-11-22T13:25:06;16.17;;;11.00;;
51602;SDS011;37954;51.980;5.850;2023-11-22T13:29:17;19.23;;;11.73;;
51602;SDS011;37954;51.980;5.850;2023-11-22T13:33:29;18.20;;;11.87;;
51602;SDS011;37954;51.980;5.850;2023-11-22T13:37:41;20.93;;;13.10;;
51602;SDS011;37954;51.980;5.850;2023-11-22T13:41:56;20.70;;;12.97;;
51602;SDS011;37954;51.980;5.850;2023-11-22T13:46:08;19.40;;;12.07;;
51602;SDS011;37954;51.980;5.850;2023-11-22T13:50:23;24.13;;;13.33;;
51602;SDS011;37954;51.980;5.850;2023-11-22T13:54:37;22.93;;;13.03;;
51602;SDS011;37954;51.980;5.850;2023-11-22T13:58:50;24.43;;;13.30;;
51602;SDS011;37954;51.980;5.850;2023-11-22T14:03:11;22.47;;;14.47;;
51602;SDS011;37954;51.980;5.850;2023-11-22T14:07:25;23.83;;;14.60;;
51602;SDS011;37954;51.980;5.850;2023-11-22T14:11:38;26.87;;;14.93;;
51602;SDS011;37954;51.980;5.850;2023-11-22T14:15:50;25.20;;;14.40;;
51602;SDS011;37954;51.980;5.850;2023-11-22T14:20:02;28.50;;;17.10;;
51602;SDS011;37954;51.980;5.850;2023-11-22T14:24:16;29.37;;;17.37;;
51602;SDS011;37954;51.980;5.850;2023-11-22T14:28:29;29.47;;;17.50;;
51602;SDS011;37954;51.980;5.850;2023-11-22T14:32:41;32.30;;;19.27;;
51602;SDS011;37954;51.980;5.850;2023-11-22T14:36:56;29.27;;;18.53;;
51602;SDS011;37954;51.980;5.850;2023-11-22T14:41:07;28.07;;;17.57;;
51602;SDS011;37954;51.980;5.850;2023-11-22T14:45:21;31.63;;;18.37;;
51602;SDS011;37954;51.980;5.850;2023-11-22T14:49:33;33.97;;;19.17;;
51602;SDS011;37954;51.980;5.850;2023-11-22T14:53:57;33.47;;;19.20;;
51602;SDS011;37954;51.980;5.850;2023-11-22T14:58:09;32.03;;;19.33;;
51602;SDS011;37954;51.980;5.850;2023-11-22T15:02:20;34.20;;;19.43;;
51602;SDS011;37954;51.980;5.850;2023-11-22T15:06:32;34.13;;;20.00;;
51602;SDS011;37954;51.980;5.850;2023-11-22T15:10:46;32.63;;;19.03;;
51602;SDS011;37954;51.980;5.850;2023-11-22T15:14:57;37.97;;;18.27;;
51602;SDS011;37954;51.980;5.850;2023-11-22T15:19:10;32.20;;;19.10;;
51602;SDS011;37954;51.980;5.850;2023-11-22T15:23:22;30.33;;;19.20;;
51602;SDS011;37954;51.980;5.850;2023-11-22T15:27:34;31.33;;;18.67;;
51602;SDS011;37954;51.980;5.850;2023-11-22T15:31:45;32.37;;;18.23;;
51602;SDS011;37954;51.980;5.850;2023-11-22T15:35:57;26.37;;;17.17;;
51602;SDS011;37954;51.980;5.850;2023-11-22T15:40:09;28.10;;;17.23;;
51602;SDS011;37954;51.980;5.850;2023-11-22T15:44:24;26.13;;;16.20;;
51602;SDS011;37954;51.980;5.850;2023-11-22T15:48:35;24.33;;;15.90;;
51602;SDS011;37954;51.980;5.850;2023-11-22T15:53:17;28.10;;;16.20;;
51602;SDS011;37954;51.980;5.850;2023-11-22T15:57:29;25.73;;;15.90;;
51602;SDS011;37954;51.980;5.850;2023-11-22T16:01:42;27.27;;;16.57;;
51602;SDS011;37954;51.980;5.850;2023-11-22T16:05:53;29.10;;;17.37;;
51602;SDS011;37954;51.980;5.850;2023-11-22T16:10:05;29.17;;;17.60;;
51602;SDS011;37954;51.980;5.850;2023-11-22T16:14:19;35.53;;;19.13;;
51602;SDS011;37954;51.980;5.850;2023-11-22T16:18:31;36.00;;;20.47;;
51602;SDS011;37954;51.980;5.850;2023-11-22T16:22:44;33.70;;;21.17;;
51602;SDS011;37954;51.980;5.850;2023-11-22T16:26:56;33.17;;;20.63;;
51602;SDS011;37954;51.980;5.850;2023-11-22T16:31:08;33.90;;;19.93;;
51602;SDS011;37954;51.980;5.850;2023-11-22T16:35:21;41.40;;;23.27;;
51602;SDS011;37954;51.980;5.850;2023-11-22T16:39:33;40.27;;;22.63;;
51602;SDS011;37954;51.980;5.850;2023-11-22T16:43:46;38.07;;;23.27;;
51602;SDS011;37954;51.980;5.850;2023-11-22T16:47:57;37.87;;;22.17;;
51602;SDS011;37954;51.980;5.850;2023-11-22T16:52:09;37.87;;;23.90;;
51602;SDS011;37954;51.980;5.850;2023-11-22T16:56:21;36.23;;;22.47;;
51602;SDS011;37954;51.980;5.850;2023-11-22T17:00:33;38.87;;;22.70;;
51602;SDS011;37954;51.980;5.850;2023-11-22T17:04:45;34.60;;;22.73;;
51602;SDS011;37954;51.980;5.850;2023-11-22T17:08:59;38.90;;;22.17;;
51602;SDS011;37954;51.980;5.850;2023-11-22T17:17:56;40.40;;;22.63;;
51602;SDS011;37954;51.980;5.850;2023-11-22T17:22:26;36.27;;;21.77;;
51602;SDS011;37954;51.980;5.850;2023-11-22T17:26:39;35.87;;;21.73;;
51602;SDS011;37954;51.980;5.850;2023-11-22T17:30:51;34.33;;;21.13;;
51602;SDS011;37954;51.980;5.850;2023-11-22T17:35:02;32.50;;;19.70;;
51602;SDS011;37954;51.980;5.850;2023-11-22T17:39:14;31.13;;;19.77;;
51602;SDS011;37954;51.980;5.850;2023-11-22T17:43:30;32.77;;;21.40;;
51602;SDS011;37954;51.980;5.850;2023-11-22T17:47:42;29.53;;;19.47;;
51602;SDS011;37954;51.980;5.850;2023-11-22T17:51:55;32.30;;;19.97;;
51602;SDS011;37954;51.980;5.850;2023-11-22T17:56:07;33.13;;;20.20;;
51602;SDS011;37954;51.980;5.850;2023-11-22T18:00:21;30.50;;;20.33;;
51602;SDS011;37954;51.980;5.850;2023-11-22T18:04:33;29.17;;;18.97;;
51602;SDS011;37954;51.980;5.850;2023-11-22T18:08:46;30.30;;;19.03;;
51602;SDS011;37954;51.980;5.850;2023-11-22T18:12:58;26.80;;;18.17;;
51602;SDS011;37954;51.980;5.850;2023-11-22T18:17:09;30.57;;;18.70;;
51602;SDS011;37954;51.980;5.850;2023-11-22T18:21:21;28.67;;;18.53;;
51602;SDS011;37954;51.980;5.850;2023-11-22T18:25:33;24.23;;;17.57;;
51602;SDS011;37954;51.980;5.850;2023-11-22T18:29:44;25.47;;;17.10;;
51602;SDS011;37954;51.980;5.850;2023-11-22T18:33:56;22.60;;;16.33;;
51602;SDS011;37954;51.980;5.850;2023-11-22T18:38:08;23.20;;;15.37;;
51602;SDS011;37954;51.980;5.850;2023-11-22T18:42:20;23.33;;;16.50;;
51602;SDS011;37954;51.980;5.850;2023-11-22T18:46:32;22.83;;;15.73;;
51602;SDS011;37954;51.980;5.850;2023-11-22T18:50:44;25.60;;;15.67;;
51602;SDS011;37954;51.980;5.850;2023-11-22T18:54:55;25.20;;;15.50;;
51602;SDS011;37954;51.980;5.850;2023-11-22T18:59:08;23.90;;;16.27;;
51602;SDS011;37954;51.980;5.850;2023-11-22T19:03:24;31.27;;;15.50;;
51602;SDS011;37954;51.980;5.850;2023-11-22T19:07:35;19.07;;;14.07;;
51602;SDS011;37954;51.980;5.850;2023-11-22T19:11:47;19.27;;;14.60;;
51602;SDS011;37954;51.980;5.850;2023-11-22T19:16:01;24.00;;;14.93;;
51602;SDS011;37954;51.980;5.850;2023-11-22T19:20:13;20.13;;;14.13;;
51602;SDS011;37954;51.980;5.850;2023-11-22T19:24:25;21.30;;;13.90;;
51602;SDS011;37954;51.980;5.850;2023-11-22T19:28:38;19.90;;;14.17;;
51602;SDS011;37954;51.980;5.850;2023-11-22T19:32:49;19.90;;;14.17;;
51602;SDS011;37954;51.980;5.850;2023-11-22T19:37:01;20.03;;;13.87;;
51602;SDS011;37954;51.980;5.850;2023-11-22T19:41:12;20.87;;;13.93;;
51602;SDS011;37954;51.980;5.850;2023-11-22T19:45:24;20.47;;;14.23;;
51602;SDS011;37954;51.980;5.850;2023-11-22T19:49:35;19.83;;;13.30;;
51602;SDS011;37954;51.980;5.850;2023-11-22T19:53:47;21.57;;;13.77;;
51602;SDS011;37954;51.980;5.850;2023-11-22T19:57:58;21.67;;;14.47;;
51602;SDS011;37954;51.980;5.850;2023-11-22T20:02:12;19.63;;;14.27;;
51602;SDS011;37954;51.980;5.850;2023-11-22T20:06:24;20.03;;;13.13;;
51602;SDS011;37954;51.980;5.850;2023-11-22T20:10:39;18.00;;;13.90;;
51602;SDS011;37954;51.980;5.850;2023-11-22T20:14:51;19.83;;;14.10;;
51602;SDS011;37954;51.980;5.850;2023-11-22T20:19:02;16.87;;;12.50;;
51602;SDS011;37954;51.980;5.850;2023-11-22T20:23:14;20.57;;;13.60;;
51602;SDS011;37954;51.980;5.850;2023-11-22T20:27:30;19.17;;;12.90;;
51602;SDS011;37954;51.980;5.850;2023-11-22T20:31:42;20.00;;;12.63;;
51602;SDS011;37954;51.980;5.850;2023-11-22T20:35:53;17.43;;;12.83;;
51602;SDS011;37954;51.980;5.850;2023-11-22T20:40:06;18.63;;;13.23;;
51602;SDS011;37954;51.980;5.850;2023-11-22T20:44:19;19.93;;;12.70;;
51602;SDS011;37954;51.980;5.850;2023-11-22T20:48:30;18.20;;;13.23;;
51602;SDS011;37954;51.980;5.850;2023-11-22T20:52:42;19.93;;;12.93;;
51602;SDS011;37954;51.980;5.850;2023-11-22T20:56:54;18.10;;;12.63;;
51602;SDS011;37954;51.980;5.850;2023-11-22T21:01:08;17.97;;;11.90;;
51602;SDS011;37954;51.980;5.850;2023-11-22T21:05:19;19.00;;;12.53;;
51602;SDS011;37954;51.980;5.850;2023-11-22T21:09:31;17.40;;;12.57;;
51602;SDS011;37954;51.980;5.850;2023-11-22T21:13:43;18.87;;;12.23;;
51602;SDS011;37954;51.980;5.850;2023-11-22T21:17:55;23.00;;;13.67;;
51602;SDS011;37954;51.980;5.850;2023-11-22T21:22:07;18.40;;;12.83;;
51602;SDS011;37954;51.980;5.850;2023-11-22T21:26:18;22.20;;;13.73;;
51602;SDS011;37954;51.980;5.850;2023-11-22T21:30:30;21.00;;;13.73;;
51602;SDS011;37954;51.980;5.850;2023-11-22T21:34:42;19.43;;;13.17;;
51602;SDS011;37954;51.980;5.850;2023-11-22T21:38:53;20.80;;;13.27;;
51602;SDS011;37954;51.980;5.850;2023-11-22T21:43:12;18.57;;;12.30;;
51602;SDS011;37954;51.980;5.850;2023-11-22T21:47:24;20.40;;;13.37;;
51602;SDS011;37954;51.980;5.850;2023-11-22T21:51:36;21.57;;;13.00;;
51602;SDS011;37954;51.980;5.850;2023-11-22T21:55:48;21.80;;;13.67;;
51602;SDS011;37954;51.980;5.850;2023-11-22T22:00:00;20.17;;;12.93;;
51602;SDS011;37954;51.980;5.850;2023-11-22T22:04:14;18.50;;;13.17;;
51602;SDS011;37954;51.980;5.850;2023-11-22T22:08:26;19.97;;;13.87;;
51602;SDS011;37954;51.980;5.850;2023-11-22T22:12:38;21.43;;;12.87;;
51602;SDS011;37954;51.980;5.850;2023-11-22T22:16:50;19.90;;;12.87;;
51602;SDS011;37954;51.980;5.850;2023-11-22T22:21:01;19.63;;;13.07;;
51602;SDS011;37954;51.980;5.850;2023-11-22T22:25:13;21.00;;;13.47;;
51602;SDS011;37954;51.980;5.850;2023-11-22T22:29:25;23.57;;;13.13;;
51602;SDS011;37954;51.980;5.850;2023-11-22T22:33:36;20.67;;;12.97;;
51602;SDS011;37954;51.980;5.850;2023-11-22T22:37:48;19.97;;;13.43;;
51602;SDS011;37954;51.980;5.850;2023-11-22T22:42:00;20.40;;;12.83;;
51602;SDS011;37954;51.980;5.850;2023-11-22T22:46:12;21.80;;;14.00;;
51602;SDS011;37954;51.980;5.850;2023-11-22T22:50:26;24.77;;;14.43;;
51602;SDS011;37954;51.980;5.850;2023-11-22T22:54:37;20.67;;;13.53;;
51602;SDS011;37954;51.980;5.850;2023-11-22T22:58:49;21.10;;;13.53;;
51602;SDS011;37954;51.980;5.850;2023-11-22T23:03:01;21.60;;;14.37;;
51602;SDS011;37954;51.980;5.850;2023-11-22T23:07:13;21.57;;;12.90;;
51602;SDS011;37954;51.980;5.850;2023-11-22T23:11:25;25.50;;;13.97;;
51602;SDS011;37954;51.980;5.850;2023-11-22T23:15:36;22.03;;;14.20;;
51602;SDS011;37954;51.980;5.850;2023-11-22T23:19:48;20.53;;;14.43;;
51602;SDS011;37954;51.980;5.850;2023-11-22T23:24:02;20.53;;;13.97;;
51602;SDS011;37954;51.980;5.850;2023-11-22T23:28:14;19.40;;;13.10;;
51602;SDS011;37954;51.980;5.850;2023-11-22T23:32:26;22.17;;;14.33;;
51602;SDS011;37954;51.980;5.850;2023-11-22T23:36:38;23.03;;;14.00;;
51602;SDS011;37954;51.980;5.850;2023-11-22T23:40:52;23.13;;;15.30;;
51602;SDS011;37954;51.980;5.850;2023-11-22T23:45:03;22.77;;;14.43;;
51602;SDS011;37954;51.980;5.850;2023-11-22T23:49:18;21.17;;;13.83;;
51602;SDS011;37954;51.980;5.850;2023-11-22T23:53:29;22.33;;;14.63;;
51602;SDS011;37954;51.980;5.850;2023-11-22T23:57:41;21.98;;;14.25;;
